»·PEaware :: N799BS KCRQ-KTRM

N799BS :: KCRQ-KTRM

FLIGHT INFORMATION

Flight Status: Arrived
Operator: Privately registered:
United States
More flights under this callsign
Pilot: Steve R. (11401)
Aircraft: BEECH AIRCRAFT BONANZA
(BE36)
More flights by this aircraft type
Origin: KCRQ McClellan-Palomar
United States
Destination: KTRM Desert Resorts Regl
United States
More flights between these airports :: More routes between these airports
Route: +JLI V208 TRM
File this flight plan on PilotEdge
Remarks:
Altitude:
(Current/Filed)
9,000ft
Speed:
(Current/Filed)
155kts
Departed: 15-Oct-17 09:37 AM
Arrived: 15-Oct-17 10:30 AM
Distance/Time
Traveled:
64nm/0:53
Distance/Time
To Go:
Arrived

Flight Plot

Page will automatically refresh every two minutes.

Flight plan parsing failed; only flown route is shown


Map Options




Map Legend


Flown Route
Filed Route
Departure Airport
Arrival Airport
Navaid (VOR, NDB)
Fix

Horizontal Profiles

Position Reports

Time Latitude Longitude Heading Altitude Ground
Speed
15-Oct-17 09:31 33.127538 -117.274801 256 335ft 0kts
15-Oct-17 09:32 33.127538 -117.274801 256 335ft 0kts
15-Oct-17 09:33 33.127538 -117.274801 256 335ft 0kts
15-Oct-17 09:34 33.127538 -117.274801 256 335ft 0kts
15-Oct-17 09:35 33.127538 -117.274801 256 335ft 0kts
15-Oct-17 09:36 33.127538 -117.274801 256 335ft 0kts
15-Oct-17 09:37 33.127538 -117.274801 256 335ft 0kts
15-Oct-17 09:38 33.128411 -117.273897 82 335ft 18kts
15-Oct-17 09:39 33.128608 -117.272937 51 335ft 0kts
15-Oct-17 09:40 33.128658 -117.272872 42 335ft 1kts
15-Oct-17 09:41 33.128872 -117.272696 27 335ft 7kts
15-Oct-17 09:42 33.127697 -117.288017 261 657ft 96kts
15-Oct-17 09:43 33.124132 -117.320682 261 1969ft 100kts
15-Oct-17 09:44 33.121622 -117.355880 270 2964ft 127kts
15-Oct-17 09:45 33.125406 -117.403089 284 3119ft 151kts
15-Oct-17 09:46 33.155735 -117.435005 312 3453ft 148kts
15-Oct-17 09:47 33.168598 -117.476586 244 4241ft 118kts
15-Oct-17 09:48 33.144728 -117.479672 114 5016ft 107kts
15-Oct-17 09:49 33.138208 -117.446568 101 5620ft 107kts
15-Oct-17 09:50 33.130256 -117.410210 103 6066ft 126kts
15-Oct-17 09:51 33.120760 -117.365240 102 6138ft 146kts
15-Oct-17 09:52 33.113941 -117.330510 103 6032ft 157kts
15-Oct-17 09:53 33.108563 -117.294136 96 6015ft 161kts
15-Oct-17 09:54 33.105819 -117.253719 97 6218ft 151kts
15-Oct-17 09:55 33.099518 -117.214659 103 6654ft 141kts
15-Oct-17 09:56 33.093327 -117.178582 100 7058ft 139kts
15-Oct-17 09:57 33.087169 -117.143052 98 7436ft 138kts
15-Oct-17 09:58 33.080774 -117.104924 102 7828ft 138kts
15-Oct-17 09:59 33.073955 -117.065000 101 8294ft 133kts
15-Oct-17 10:00 33.067253 -117.024989 102 8739ft 135kts
15-Oct-17 10:01 33.059464 -116.979425 103 8975ft 154kts
15-Oct-17 10:02 33.049875 -116.930784 104 8971ft 164kts
15-Oct-17 10:03 33.039362 -116.880260 105 8971ft 168kts
15-Oct-17 10:04 33.028173 -116.828027 105 8971ft 170kts
15-Oct-17 10:05 33.016903 -116.775871 105 8971ft 170kts
15-Oct-17 10:06 33.005893 -116.721534 102 8970ft 170kts
15-Oct-17 10:07 32.997429 -116.666463 101 8970ft 170kts
15-Oct-17 10:08 32.988936 -116.610985 101 8970ft 170kts
15-Oct-17 10:09 32.980492 -116.555490 101 8970ft 170kts
15-Oct-17 10:10 32.972073 -116.500125 101 8970ft 170kts
15-Oct-17 10:11 32.964945 -116.445691 83 8960ft 171kts
15-Oct-17 10:12 33.002396 -116.424935 357 8918ft 180kts
15-Oct-17 10:13 33.047197 -116.416780 17 8889ft 177kts
15-Oct-17 10:14 33.088468 -116.400512 20 8889ft 176kts
15-Oct-17 10:15 33.118592 -116.368519 60 8890ft 172kts
15-Oct-17 10:16 33.140178 -116.326324 59 8889ft 173kts
15-Oct-17 10:17 33.161570 -116.282437 53 8884ft 172kts
15-Oct-17 10:18 33.184840 -116.240725 59 8890ft 173kts
15-Oct-17 10:19 33.206986 -116.198125 59 8889ft 173kts
15-Oct-17 10:20 33.228803 -116.156001 59 8783ft 172kts
15-Oct-17 10:21 33.251112 -116.112068 56 7983ft 189kts
15-Oct-17 10:22 33.279326 -116.072164 50 7709ft 177kts
15-Oct-17 10:23 33.307924 -116.031556 50 7247ft 180kts
15-Oct-17 10:24 33.336902 -115.990082 50 6665ft 178kts
15-Oct-17 10:25 33.376462 -115.970423 329 5798ft 180kts
15-Oct-17 10:26 33.408736 -116.008905 318 4896ft 174kts
15-Oct-17 10:27 33.441632 -116.042793 319 3995ft 164kts
15-Oct-17 10:27 33.465819 -116.068419 318 3101ft 124kts
15-Oct-17 10:28 33.490944 -116.094308 319 1936ft 119kts
15-Oct-17 10:30 33.518033 -116.122197 319 1387ft 98kts
15-Oct-17 10:30 33.535753 -116.138417 344 1388ft 95kts
15-Oct-17 10:31 33.561987 -116.144720 348 1288ft 97kts
15-Oct-17 10:32 33.587416 -116.150717 348 741ft 92kts
15-Oct-17 10:33 33.611348 -116.155925 349 -24ft 81kts
15-Oct-17 10:34 33.622969 -116.156490 358 -110ft 24kts
15-Oct-17 10:35 33.625305 -116.157684 346 -110ft 14kts
15-Oct-17 10:36 33.632254 -116.157723 5 -111ft 23kts
15-Oct-17 10:37 33.634387 -116.159341 322 -110ft 13kts
15-Oct-17 10:38 33.634597 -116.165067 266 -111ft 0kts
15-Oct-17 10:39 33.634597 -116.165067 266 -111ft 0kts
15-Oct-17 10:40 33.634597 -116.165067 266 -111ft 0kts
15-Oct-17 10:41 33.634597 -116.165067 266 -111ft 0kts
15-Oct-17 10:42 33.634597 -116.165067 266 -111ft 0kts
15-Oct-17 10:43 33.634597 -116.165067 266 -111ft 0kts
15-Oct-17 10:44 33.634597 -116.165067 266 -111ft 0kts
15-Oct-17 10:45 33.634597 -116.165067 266 -111ft 0kts
15-Oct-17 10:46 33.634597 -116.165067 266 -111ft 0kts
15-Oct-17 10:47 33.634597 -116.165067 266 -111ft 0kts
15-Oct-17 10:48 33.634597 -116.165067 266 -111ft 0kts

Navigation Log

Ident Type
Flight plan parsing failed, navigation log unavailable